createdAt,value
2018-08-09T00:01:06.822Z,26.50
2018-08-09T00:03:36.216Z,26.50
2018-08-09T00:06:05.570Z,26.50
2018-08-09T00:08:35.060Z,26.50
2018-08-09T00:11:04.692Z,26.50
2018-08-09T00:13:34.274Z,26.50
2018-08-09T00:16:04.057Z,26.50
2018-08-09T00:18:33.381Z,26.50
2018-08-09T00:21:03.539Z,26.40
2018-08-09T00:23:33.118Z,26.40
2018-08-09T00:26:02.787Z,26.30
2018-08-09T00:28:32.317Z,26.20
2018-08-09T00:31:01.982Z,26.10
2018-08-09T00:33:31.375Z,26.00
2018-08-09T00:36:01.091Z,25.90
2018-08-09T00:38:30.670Z,25.80
2018-08-09T00:41:00.167Z,25.70
2018-08-09T00:43:29.580Z,25.60
2018-08-09T00:45:59.195Z,25.50
2018-08-09T00:48:28.730Z,25.50
2018-08-09T00:50:58.636Z,25.50
2018-08-09T00:53:28.205Z,25.50
2018-08-09T00:55:57.556Z,25.50
2018-08-09T00:58:27.023Z,25.40
2018-08-09T01:00:56.570Z,25.40
2018-08-09T01:03:26.074Z,25.40
2018-08-09T01:05:55.572Z,25.40
2018-08-09T01:08:24.937Z,25.40
2018-08-09T01:10:54.359Z,25.50
2018-08-09T01:13:23.816Z,25.50
2018-08-09T01:15:53.246Z,25.50
2018-08-09T01:18:22.738Z,25.40
2018-08-09T01:20:52.348Z,25.40
2018-08-09T01:23:22.037Z,25.40
2018-08-09T01:25:51.495Z,25.40
2018-08-09T01:28:20.927Z,25.40
2018-08-09T01:30:50.375Z,25.40
2018-08-09T01:33:19.924Z,25.40
2018-08-09T01:35:49.496Z,25.50
2018-08-09T01:38:18.969Z,25.50
2018-08-09T01:40:48.614Z,25.50
2018-08-09T01:43:28.957Z,25.50
2018-08-09T01:45:58.566Z,25.50
2018-08-09T01:48:28.507Z,25.50
2018-08-09T01:50:57.797Z,25.50
2018-08-09T01:53:27.440Z,25.50
2018-08-09T01:55:56.956Z,25.40
2018-08-09T01:58:26.297Z,25.40
2018-08-09T02:00:55.702Z,25.40
2018-08-09T02:03:25.170Z,25.30
2018-08-09T02:05:54.582Z,25.30
2018-08-09T02:08:24.090Z,25.20
2018-08-09T02:10:53.629Z,25.20
2018-08-09T02:13:23.195Z,25.10
2018-08-09T02:15:52.641Z,25.10
2018-08-09T02:18:22.244Z,25.20
2018-08-09T02:20:51.857Z,25.10
2018-08-09T02:23:21.391Z,25.10
2018-08-09T02:25:51.205Z,25.10
2018-08-09T02:28:20.655Z,25.00
2018-08-09T02:30:50.002Z,25.00
2018-08-09T02:33:19.737Z,24.90
2018-08-09T02:35:49.311Z,24.90
2018-08-09T02:38:18.922Z,24.90
2018-08-09T02:40:48.439Z,24.80
2018-08-09T02:43:17.878Z,24.80
2018-08-09T02:45:47.610Z,24.80
2018-08-09T02:48:17.267Z,24.80
2018-08-09T02:50:47.134Z,24.90
2018-08-09T02:53:16.565Z,24.80
2018-08-09T02:55:46.137Z,24.80
2018-08-09T02:58:15.742Z,24.70
2018-08-09T03:00:45.730Z,24.70
2018-08-09T03:03:15.352Z,24.60
2018-08-09T03:05:44.802Z,24.50
2018-08-09T03:08:14.459Z,24.50
2018-08-09T03:10:43.884Z,24.50
2018-08-09T03:13:13.413Z,24.50
2018-08-09T03:15:43.143Z,24.50
2018-08-09T03:18:13.183Z,24.50
2018-08-09T03:20:42.736Z,24.50
2018-08-09T03:23:12.852Z,24.40
2018-08-09T03:25:42.388Z,24.30
2018-08-09T03:28:12.058Z,24.30
2018-08-09T03:30:41.601Z,24.30
2018-08-09T03:33:10.978Z,24.20
2018-08-09T03:35:40.624Z,24.20
2018-08-09T03:38:10.213Z,24.10
2018-08-09T03:40:40.386Z,24.10
2018-08-09T03:43:09.854Z,24.10
2018-08-09T03:45:39.299Z,24.10
2018-08-09T03:48:08.620Z,24.00
2018-08-09T03:50:38.205Z,24.10
2018-08-09T03:53:07.724Z,24.10
2018-08-09T03:55:37.600Z,24.10
2018-08-09T03:58:07.613Z,24.10
2018-08-09T04:00:37.096Z,24.10
2018-08-09T04:03:06.857Z,24.10
2018-08-09T04:05:36.379Z,24.00
2018-08-09T04:08:05.967Z,24.00
2018-08-09T04:10:35.677Z,24.00
2018-08-09T04:13:05.290Z,24.00
2018-08-09T04:15:34.859Z,23.90
2018-08-09T04:18:04.555Z,23.90
2018-08-09T04:20:34.072Z,23.90
2018-08-09T04:23:03.677Z,23.90
2018-08-09T04:25:33.289Z,24.00
2018-08-09T04:28:02.794Z,24.00
2018-08-09T04:30:32.304Z,24.00
2018-08-09T04:33:01.806Z,24.00
2018-08-09T04:35:31.235Z,24.00
2018-08-09T04:38:01.280Z,23.90
2018-08-09T04:40:31.043Z,23.90
2018-08-09T04:43:00.521Z,23.90
2018-08-09T04:45:30.092Z,23.90
2018-08-09T04:47:59.805Z,24.00
2018-08-09T04:50:29.419Z,24.00
2018-08-09T04:52:58.871Z,24.00
2018-08-09T04:55:28.434Z,24.00
2018-08-09T04:57:57.951Z,23.90
2018-08-09T05:00:30.599Z,23.90
2018-08-09T05:03:00.125Z,23.90
2018-08-09T05:05:29.678Z,23.90
2018-08-09T05:07:59.178Z,23.90
2018-08-09T05:10:28.772Z,23.90
2018-08-09T05:12:58.524Z,24.00
2018-08-09T05:15:28.282Z,24.00
2018-08-09T05:17:57.911Z,24.00
2018-08-09T05:20:28.183Z,24.10
2018-08-09T05:22:57.624Z,24.20
2018-08-09T05:25:27.283Z,24.20
2018-08-09T05:27:56.839Z,24.30
2018-08-09T05:30:26.447Z,24.30
2018-08-09T05:32:55.871Z,24.40
2018-08-09T05:35:25.427Z,24.50
2018-08-09T05:37:55.209Z,24.50
2018-08-09T05:40:24.790Z,24.60
2018-08-09T05:42:54.240Z,24.70
2018-08-09T05:45:23.563Z,24.80
2018-08-09T05:47:53.831Z,24.90
2018-08-09T05:50:23.314Z,24.90
2018-08-09T05:52:52.981Z,25.00
2018-08-09T05:55:22.602Z,25.10
2018-08-09T05:57:52.092Z,25.20
2018-08-09T06:00:21.499Z,25.20
2018-08-09T06:02:51.446Z,25.30
2018-08-09T06:05:21.107Z,25.40
2018-08-09T06:07:51.562Z,25.40
2018-08-09T06:10:21.184Z,25.50
2018-08-09T06:12:50.772Z,25.60
2018-08-09T06:15:20.589Z,25.70
2018-08-09T06:17:50.082Z,25.80
2018-08-09T06:20:19.747Z,25.90
2018-08-09T06:22:49.222Z,26.00
2018-08-09T06:25:18.869Z,26.00
2018-08-09T06:27:48.338Z,26.20
2018-08-09T06:30:17.812Z,26.20
2018-08-09T06:32:47.379Z,26.20
2018-08-09T06:35:16.764Z,26.30
2018-08-09T06:37:46.332Z,26.40
2018-08-09T06:40:16.246Z,26.40
2018-08-09T06:42:45.926Z,26.50
2018-08-09T06:45:15.381Z,26.60
2018-08-09T06:47:44.908Z,26.70
2018-08-09T06:50:14.599Z,26.80
2018-08-09T06:52:44.232Z,26.80
2018-08-09T06:55:13.713Z,26.90
2018-08-09T06:57:43.450Z,26.90
2018-08-09T07:00:13.829Z,27.00
2018-08-09T07:02:43.762Z,27.00
2018-08-09T07:05:13.306Z,27.10
2018-08-09T07:07:43.040Z,27.20
2018-08-09T07:10:12.929Z,27.30
2018-08-09T07:12:42.613Z,27.40
2018-08-09T07:15:13.251Z,27.60
2018-08-09T07:17:43.397Z,27.80
2018-08-09T07:20:12.923Z,28.00
2018-08-09T07:22:42.637Z,28.30
2018-08-09T07:25:12.247Z,28.60
2018-08-09T07:27:41.788Z,29.10
2018-08-09T07:30:13.316Z,29.50
2018-08-09T07:32:42.971Z,29.90
2018-08-09T07:35:12.663Z,30.40
2018-08-09T07:37:42.275Z,30.90
2018-08-09T07:40:12.966Z,31.30
2018-08-09T07:42:43.594Z,31.70
2018-08-09T07:45:14.781Z,32.20
2018-08-09T07:47:44.487Z,32.70
2018-08-09T07:50:14.330Z,33.30
2018-08-09T07:52:44.043Z,33.90
2018-08-09T07:55:13.798Z,34.50
2018-08-09T07:57:43.556Z,34.90
2018-08-09T08:00:13.554Z,35.10
2018-08-09T08:02:43.361Z,35.50
2018-08-09T08:05:13.046Z,36.00
2018-08-09T08:07:42.606Z,36.10
2018-08-09T08:10:12.091Z,36.50
2018-08-09T08:12:41.649Z,36.90
2018-08-09T08:15:11.743Z,37.10
2018-08-09T08:17:41.345Z,37.50
2018-08-09T08:20:11.141Z,37.80
2018-08-09T08:22:41.648Z,38.00
2018-08-09T08:25:11.364Z,38.20
2018-08-09T08:27:41.075Z,38.40
2018-08-09T08:30:12.740Z,38.60
2018-08-09T08:32:42.946Z,39.00
2018-08-09T08:35:12.645Z,39.20
2018-08-09T08:37:42.614Z,39.40
2018-08-09T08:40:12.187Z,39.40
2018-08-09T08:42:41.620Z,39.50
2018-08-09T08:45:13.290Z,39.40
2018-08-09T08:47:43.287Z,39.40
2018-08-09T08:50:13.281Z,39.40
2018-08-09T08:52:42.722Z,39.40
2018-08-09T08:55:13.093Z,39.50
2018-08-09T08:57:42.579Z,39.60
2018-08-09T09:00:13.514Z,39.60
2018-08-09T09:02:43.111Z,39.80
2018-08-09T09:05:13.583Z,39.90
2018-08-09T09:07:43.106Z,39.90
2018-08-09T09:10:13.722Z,40.00
2018-08-09T09:12:43.513Z,40.20
2018-08-09T09:15:14.900Z,40.30
2018-08-09T09:17:44.931Z,40.30
2018-08-09T09:20:16.571Z,40.10
2018-08-09T09:22:46.194Z,40.00
2018-08-09T09:25:15.865Z,39.80
2018-08-09T09:27:45.530Z,39.50
2018-08-09T09:30:16.593Z,39.20
2018-08-09T09:32:46.446Z,39.00
2018-08-09T09:35:16.065Z,38.80
2018-08-09T09:37:45.856Z,38.80
2018-08-09T09:40:15.375Z,38.90
2018-08-09T09:42:45.522Z,39.10
2018-08-09T09:45:15.140Z,39.50
2018-08-09T09:47:44.714Z,39.90
2018-08-09T09:50:14.455Z,40.20
2018-08-09T09:52:43.946Z,40.40
2018-08-09T09:55:13.381Z,40.60
2018-08-09T09:57:42.974Z,40.60
2018-08-09T10:00:17.341Z,40.60
2018-08-09T10:02:47.763Z,40.60
2018-08-09T10:05:17.278Z,40.80
2018-08-09T10:07:46.840Z,41.20
2018-08-09T10:10:16.540Z,41.50
2018-08-09T10:12:46.201Z,41.90
2018-08-09T10:15:15.832Z,41.80
2018-08-09T10:17:45.379Z,41.80
2018-08-09T10:20:14.800Z,41.80
2018-08-09T10:22:44.536Z,41.90
2018-08-09T10:25:14.063Z,41.70
2018-08-09T10:27:43.622Z,41.60
2018-08-09T10:30:13.138Z,41.20
2018-08-09T10:32:42.719Z,40.90
2018-08-09T10:35:13.168Z,41.00
2018-08-09T10:37:42.758Z,41.10
2018-08-09T10:40:12.325Z,40.90
2018-08-09T10:42:41.917Z,41.00
2018-08-09T10:45:12.364Z,41.00
2018-08-09T10:47:41.926Z,41.00
2018-08-09T10:50:11.533Z,41.20
2018-08-09T10:52:41.163Z,41.40
2018-08-09T10:55:11.034Z,41.60
2018-08-09T10:57:40.536Z,41.80
2018-08-09T11:00:12.614Z,41.80
2018-08-09T11:02:42.312Z,41.80
2018-08-09T11:05:11.778Z,41.70
2018-08-09T11:07:41.515Z,41.80
2018-08-09T11:10:11.638Z,41.50
2018-08-09T11:12:41.148Z,41.30
2018-08-09T11:15:13.193Z,41.10
2018-08-09T11:17:43.287Z,41.10
2018-08-09T11:20:13.805Z,41.20
2018-08-09T11:22:43.418Z,41.40
2018-08-09T11:25:13.009Z,41.80
2018-08-09T11:27:42.657Z,41.90
2018-08-09T11:30:12.204Z,41.70
2018-08-09T11:32:41.740Z,41.70
2018-08-09T11:35:11.234Z,41.90
2018-08-09T11:37:40.739Z,42.10
2018-08-09T11:40:10.497Z,42.20
2018-08-09T11:42:40.274Z,42.30
2018-08-09T11:45:09.802Z,42.20
2018-08-09T11:47:39.766Z,42.20
2018-08-09T11:50:09.355Z,41.90
2018-08-09T11:52:38.912Z,41.90
2018-08-09T11:55:08.422Z,42.10
2018-08-09T11:57:38.091Z,42.20
2018-08-09T12:00:08.813Z,42.10
2018-08-09T12:02:38.322Z,41.60
2018-08-09T12:05:07.971Z,41.00
2018-08-09T12:07:37.445Z,40.70
2018-08-09T12:10:07.215Z,40.80
2018-08-09T12:12:36.708Z,40.90
2018-08-09T12:15:07.757Z,41.10
2018-08-09T12:17:37.455Z,40.90
2018-08-09T12:20:07.459Z,41.00
2018-08-09T12:22:36.849Z,40.90
2018-08-09T12:25:06.637Z,40.40
2018-08-09T12:27:36.669Z,40.30
2018-08-09T12:30:10.038Z,40.40
2018-08-09T12:32:39.872Z,40.60
2018-08-09T12:35:14.441Z,40.60
2018-08-09T12:37:44.737Z,40.50
2018-08-09T12:40:14.277Z,40.50
2018-08-09T12:42:43.700Z,40.50
2018-08-09T12:45:13.560Z,40.40
2018-08-09T12:47:44.041Z,40.30
2018-08-09T12:50:14.634Z,40.00
2018-08-09T12:52:44.932Z,39.70
2018-08-09T12:55:15.149Z,39.50
2018-08-09T12:57:44.689Z,39.30
2018-08-09T13:00:15.154Z,39.00
2018-08-09T13:02:44.737Z,38.70
2018-08-09T13:05:14.511Z,38.60
2018-08-09T13:07:44.029Z,38.50
2018-08-09T13:10:14.605Z,38.30
2018-08-09T13:12:44.439Z,38.20
2018-08-09T13:15:14.775Z,38.10
2018-08-09T13:17:45.737Z,38.00
2018-08-09T13:20:18.367Z,37.80
2018-08-09T13:22:49.042Z,37.70
2018-08-09T13:25:18.627Z,37.50
2018-08-09T13:27:48.734Z,37.50
2018-08-09T13:30:18.282Z,37.50
2018-08-09T13:32:48.511Z,37.30
2018-08-09T13:35:18.728Z,37.20
2018-08-09T13:37:48.369Z,37.20
2018-08-09T13:40:18.056Z,37.20
2018-08-09T13:42:47.704Z,37.10
2018-08-09T13:45:17.820Z,37.00
2018-08-09T13:47:47.539Z,36.80
2018-08-09T13:50:17.248Z,36.70
2018-08-09T13:52:46.706Z,36.50
2018-08-09T13:55:16.431Z,36.50
2018-08-09T13:57:46.106Z,36.60
2018-08-09T14:00:15.991Z,36.60
2018-08-09T14:02:46.362Z,36.70
2018-08-09T14:05:15.968Z,36.80
2018-08-09T14:07:45.507Z,36.70
2018-08-09T14:10:15.749Z,36.60
2018-08-09T14:12:45.250Z,36.70
2018-08-09T14:15:15.900Z,36.60
2018-08-09T14:17:45.583Z,36.60
2018-08-09T14:20:17.686Z,36.50
2018-08-09T14:22:47.188Z,36.50
2018-08-09T14:25:16.808Z,36.40
2018-08-09T14:27:46.560Z,36.30
2018-08-09T14:30:16.809Z,36.30
2018-08-09T14:32:46.688Z,36.20
2018-08-09T14:35:17.181Z,36.30
2018-08-09T14:37:47.559Z,36.20
2018-08-09T14:40:17.448Z,36.10
2018-08-09T14:42:47.250Z,36.20
2018-08-09T14:45:17.813Z,36.10
2018-08-09T14:47:47.545Z,36.00
2018-08-09T14:50:17.644Z,36.00
2018-08-09T14:52:47.285Z,36.00
2018-08-09T14:55:16.814Z,36.00
2018-08-09T14:57:46.607Z,36.00
2018-08-09T15:00:18.781Z,36.00
2018-08-09T15:02:49.213Z,36.00
2018-08-09T15:05:19.039Z,35.90
2018-08-09T15:07:48.726Z,35.80
2018-08-09T15:10:19.238Z,35.70
2018-08-09T15:12:48.794Z,35.50
2018-08-09T15:15:18.403Z,35.50
2018-08-09T15:17:47.886Z,35.30
2018-08-09T15:20:17.589Z,35.30
2018-08-09T15:22:48.124Z,35.20
2018-08-09T15:25:19.658Z,35.20
2018-08-09T15:27:49.351Z,35.10
2018-08-09T15:30:20.098Z,35.20
2018-08-09T15:32:49.808Z,35.20
2018-08-09T15:35:19.641Z,35.20
2018-08-09T15:37:49.442Z,35.20
2018-08-09T15:40:19.073Z,35.20
2018-08-09T15:42:48.689Z,35.10
2018-08-09T15:45:18.482Z,35.10
2018-08-09T15:47:48.239Z,35.00
2018-08-09T15:50:19.644Z,35.00
2018-08-09T15:52:49.350Z,34.90
2018-08-09T15:55:19.765Z,34.80
2018-08-09T15:57:49.377Z,34.80
2018-08-09T16:00:20.954Z,34.80
2018-08-09T16:02:50.650Z,34.70
2018-08-09T16:05:20.352Z,34.70
2018-08-09T16:07:49.964Z,34.60
2018-08-09T16:10:19.707Z,34.50
2018-08-09T16:12:49.632Z,34.50
2018-08-09T16:15:20.775Z,34.40
2018-08-09T16:17:50.656Z,34.40
2018-08-09T16:20:20.259Z,34.30
2018-08-09T16:22:51.030Z,34.30
2018-08-09T16:25:21.042Z,34.30
2018-08-09T16:27:50.954Z,34.20
2018-08-09T16:30:39.591Z,34.20
2018-08-09T16:33:14.526Z,34.10
2018-08-09T16:35:52.490Z,34.10
2018-08-09T16:38:26.273Z,34.00
2018-08-09T16:41:08.284Z,34.00
2018-08-09T16:59:39.812Z,33.90
2018-08-09T17:02:12.030Z,33.60
2018-08-09T17:04:43.602Z,33.50
2018-08-09T17:07:34.311Z,33.40
2018-08-09T17:10:26.211Z,33.50
2018-08-09T17:17:00.641Z,33.30
2018-08-09T17:19:39.154Z,33.30
2018-08-09T17:22:52.259Z,33.20
2018-08-09T17:25:37.082Z,33.10
2018-08-09T17:28:14.377Z,33.10
2018-08-09T17:31:08.738Z,33.00
2018-08-09T17:33:56.914Z,32.90
2018-08-09T17:36:57.538Z,32.90
2018-08-09T17:39:36.145Z,32.80
2018-08-09T17:42:16.071Z,32.70
2018-08-09T17:48:20.654Z,32.60
2018-08-09T17:51:12.052Z,32.50
2018-08-09T17:53:47.957Z,32.50
2018-08-09T17:56:38.497Z,32.40
2018-08-09T17:59:22.937Z,32.40
2018-08-09T18:02:01.348Z,32.30
2018-08-09T18:04:49.884Z,32.30
2018-08-09T18:07:47.105Z,32.30
2018-08-09T18:10:39.106Z,32.10
2018-08-09T18:13:24.978Z,32.10
2018-08-09T18:16:02.885Z,32.00
2018-08-09T18:18:56.972Z,31.90
2018-08-09T18:21:54.002Z,31.90
2018-08-09T18:24:31.931Z,31.80
2018-08-09T18:27:07.367Z,31.70
2018-08-09T18:29:44.978Z,31.70
2018-08-09T18:32:24.216Z,31.60
2018-08-09T18:35:01.476Z,31.60
2018-08-09T18:37:41.593Z,31.50
2018-08-09T18:40:19.702Z,31.50
2018-08-09T18:43:03.016Z,31.40
2018-08-09T18:45:38.200Z,31.40
2018-08-09T18:48:19.036Z,31.30
2018-08-09T18:51:02.632Z,31.30
2018-08-09T18:53:42.429Z,31.20
2018-08-09T18:56:28.456Z,31.10
2018-08-09T18:59:09.060Z,31.10
2018-08-09T19:01:45.341Z,31.10
2018-08-09T19:06:06.883Z,31.00
2018-08-09T19:09:24.895Z,31.00
2018-08-09T19:12:13.125Z,30.90
2018-08-09T19:14:58.831Z,30.80
2018-08-09T19:27:04.279Z,30.60
2018-08-09T19:29:41.581Z,30.60
2018-08-09T19:32:26.025Z,30.50
2018-08-09T19:35:17.942Z,30.50
2018-08-09T19:38:08.855Z,30.40
2018-08-09T19:40:38.504Z,30.40
2018-08-09T19:43:11.236Z,30.40
2018-08-09T19:49:18.297Z,30.30
2018-08-09T19:51:48.489Z,30.20
2018-08-09T19:54:27.209Z,30.10
2018-08-09T21:04:22.475Z,30.10
2018-08-09T21:06:52.049Z,29.10
2018-08-09T21:09:22.436Z,29.00
2018-08-09T21:11:52.069Z,29.00
2018-08-09T21:14:22.735Z,29.00
2018-08-09T21:16:52.906Z,29.00
2018-08-09T21:19:27.460Z,29.00
2018-08-09T21:22:08.657Z,29.00
2018-08-09T21:24:40.328Z,28.90
2018-08-09T21:27:09.765Z,28.90
2018-08-09T21:29:39.212Z,28.90
2018-08-09T21:32:08.570Z,28.80
2018-08-09T21:34:55.579Z,28.80
2018-08-09T21:37:48.418Z,28.70
2018-08-09T21:43:03.606Z,28.60
2018-08-09T21:45:33.036Z,28.60
2018-08-09T21:48:02.316Z,28.50
2018-08-09T21:50:31.728Z,28.50
2018-08-09T21:53:01.332Z,28.40
2018-08-09T21:56:08.903Z,28.40
2018-08-09T22:17:24.298Z,28.30
2018-08-09T22:19:58.864Z,28.30
2018-08-09T22:22:28.598Z,28.30
2018-08-09T22:24:57.952Z,28.20
2018-08-09T22:27:27.427Z,28.20
2018-08-09T22:33:21.455Z,28.20
2018-08-09T22:35:50.830Z,28.10
2018-08-09T22:38:20.147Z,28.10
2018-08-09T22:40:49.374Z,28.10
2018-08-09T22:43:18.803Z,28.10
2018-08-09T22:45:47.933Z,28.10
2018-08-09T22:48:17.265Z,28.10
2018-08-09T22:50:46.622Z,28.00
2018-08-09T22:53:16.802Z,28.00
2018-08-09T22:55:46.614Z,28.00
2018-08-09T22:58:16.330Z,28.00
2018-08-09T23:00:45.770Z,28.00
2018-08-09T23:03:15.458Z,27.90
2018-08-09T23:05:44.937Z,27.90
2018-08-09T23:08:15.501Z,27.80
2018-08-09T23:10:45.536Z,27.80
2018-08-09T23:13:15.651Z,27.80
2018-08-09T23:15:48.770Z,27.80
2018-08-09T23:18:22.841Z,27.80
2018-08-09T23:20:57.552Z,27.80
2018-08-09T23:23:28.227Z,27.70
2018-08-09T23:26:05.487Z,27.60
2018-08-09T23:28:35.859Z,27.60
2018-08-09T23:31:05.304Z,27.60
2018-08-09T23:33:34.733Z,27.60
2018-08-09T23:36:04.204Z,27.60
2018-08-09T23:38:33.535Z,27.50
2018-08-09T23:41:03.013Z,27.50
2018-08-09T23:43:32.440Z,27.50
2018-08-09T23:46:01.899Z,27.50
2018-08-09T23:48:31.380Z,27.40
2018-08-09T23:51:00.851Z,27.40
2018-08-09T23:53:30.166Z,27.30
2018-08-09T23:55:59.588Z,27.30
2018-08-09T23:58:28.830Z,27.30
